sensor_id;sensor_type;location;lat;lon;timestamp;temperature;humidity
76168;DHT22;64927;48.214;16.378;2023-04-25T00:00:52;13.50;55.20
76168;DHT22;64927;48.214;16.378;2023-04-25T00:03:20;13.50;55.30
76168;DHT22;64927;48.214;16.378;2023-04-25T00:05:46;13.50;55.30
76168;DHT22;64927;48.214;16.378;2023-04-25T00:08:14;13.50;54.90
76168;DHT22;64927;48.214;16.378;2023-04-25T00:10:40;13.50;54.70
76168;DHT22;64927;48.214;16.378;2023-04-25T00:13:05;13.50;54.80
76168;DHT22;64927;48.214;16.378;2023-04-25T00:15:31;13.60;54.50
76168;DHT22;64927;48.214;16.378;2023-04-25T00:17:59;13.50;54.50
76168;DHT22;64927;48.214;16.378;2023-04-25T00:20:25;13.50;54.70
76168;DHT22;64927;48.214;16.378;2023-04-25T00:22:53;13.60;54.60
76168;DHT22;64927;48.214;16.378;2023-04-25T00:25:19;13.60;55.00
76168;DHT22;64927;48.214;16.378;2023-04-25T00:27:44;13.50;54.80
76168;DHT22;64927;48.214;16.378;2023-04-25T00:30:11;13.60;54.90
76168;DHT22;64927;48.214;16.378;2023-04-25T00:32:36;13.50;54.70
76168;DHT22;64927;48.214;16.378;2023-04-25T00:35:04;13.40;55.00
76168;DHT22;64927;48.214;16.378;2023-04-25T00:37:33;13.50;54.80
76168;DHT22;64927;48.214;16.378;2023-04-25T00:39:59;13.50;55.40
76168;DHT22;64927;48.214;16.378;2023-04-25T00:42:25;13.40;55.20
76168;DHT22;64927;48.214;16.378;2023-04-25T00:44:52;13.30;55.50
76168;DHT22;64927;48.214;16.378;2023-04-25T00:47:20;13.40;55.40
76168;DHT22;64927;48.214;16.378;2023-04-25T00:49:49;13.40;55.20
76168;DHT22;64927;48.214;16.378;2023-04-25T00:52:14;13.40;54.80
76168;DHT22;64927;48.214;16.378;2023-04-25T00:54:40;13.40;54.80
76168;DHT22;64927;48.214;16.378;2023-04-25T00:57:06;13.40;54.80
76168;DHT22;64927;48.214;16.378;2023-04-25T00:59:34;13.50;55.00
76168;DHT22;64927;48.214;16.378;2023-04-25T01:02:01;13.30;54.80
76168;DHT22;64927;48.214;16.378;2023-04-25T01:04:27;13.30;55.00
76168;DHT22;64927;48.214;16.378;2023-04-25T01:06:54;13.30;55.10
76168;DHT22;64927;48.214;16.378;2023-04-25T01:09:20;13.30;55.20
76168;DHT22;64927;48.214;16.378;2023-04-25T01:11:46;13.20;54.90
76168;DHT22;64927;48.214;16.378;2023-04-25T01:14:11;13.20;55.20
76168;DHT22;64927;48.214;16.378;2023-04-25T01:16:37;13.30;55.10
76168;DHT22;64927;48.214;16.378;2023-04-25T01:19:08;13.30;55.10
76168;DHT22;64927;48.214;16.378;2023-04-25T01:21:39;13.30;55.00
76168;DHT22;64927;48.214;16.378;2023-04-25T01:24:05;13.30;55.20
76168;DHT22;64927;48.214;16.378;2023-04-25T01:26:31;13.20;55.30
76168;DHT22;64927;48.214;16.378;2023-04-25T01:28:58;13.20;55.90
76168;DHT22;64927;48.214;16.378;2023-04-25T01:31:24;13.30;55.20
76168;DHT22;64927;48.214;16.378;2023-04-25T01:33:50;13.30;54.80
76168;DHT22;64927;48.214;16.378;2023-04-25T01:36:19;13.30;54.70
76168;DHT22;64927;48.214;16.378;2023-04-25T01:38:47;13.30;54.80
76168;DHT22;64927;48.214;16.378;2023-04-25T01:41:14;13.30;54.60
76168;DHT22;64927;48.214;16.378;2023-04-25T01:43:40;13.20;54.20
76168;DHT22;64927;48.214;16.378;2023-04-25T01:46:06;13.30;54.30
76168;DHT22;64927;48.214;16.378;2023-04-25T01:48:31;13.20;54.40
76168;DHT22;64927;48.214;16.378;2023-04-25T01:50:57;13.20;53.90
76168;DHT22;64927;48.214;16.378;2023-04-25T01:53:23;13.10;53.70
76168;DHT22;64927;48.214;16.378;2023-04-25T01:55:49;13.20;53.90
76168;DHT22;64927;48.214;16.378;2023-04-25T01:58:17;13.10;54.00
76168;DHT22;64927;48.214;16.378;2023-04-25T02:00:43;13.20;54.10
76168;DHT22;64927;48.214;16.378;2023-04-25T02:03:08;13.20;53.80
76168;DHT22;64927;48.214;16.378;2023-04-25T02:05:37;13.20;53.80
76168;DHT22;64927;48.214;16.378;2023-04-25T02:08:11;13.20;53.50
76168;DHT22;64927;48.214;16.378;2023-04-25T02:10:39;13.20;53.60
76168;DHT22;64927;48.214;16.378;2023-04-25T02:13:05;13.30;53.10
76168;DHT22;64927;48.214;16.378;2023-04-25T02:15:31;13.10;53.60
76168;DHT22;64927;48.214;16.378;2023-04-25T02:17:57;13.00;53.80
76168;DHT22;64927;48.214;16.378;2023-04-25T02:20:24;13.10;54.10
76168;DHT22;64927;48.214;16.378;2023-04-25T02:22:50;13.10;53.80
76168;DHT22;64927;48.214;16.378;2023-04-25T02:25:17;13.10;54.00
76168;DHT22;64927;48.214;16.378;2023-04-25T02:27:43;13.10;54.20
76168;DHT22;64927;48.214;16.378;2023-04-25T02:30:09;13.00;54.40
76168;DHT22;64927;48.214;16.378;2023-04-25T02:32:34;13.00;54.70
76168;DHT22;64927;48.214;16.378;2023-04-25T02:35:01;13.00;54.60
76168;DHT22;64927;48.214;16.378;2023-04-25T02:37:39;13.00;54.70
76168;DHT22;64927;48.214;16.378;2023-04-25T02:40:06;13.00;55.00
76168;DHT22;64927;48.214;16.378;2023-04-25T02:42:34;13.00;55.60
76168;DHT22;64927;48.214;16.378;2023-04-25T02:44:59;12.90;55.40
76168;DHT22;64927;48.214;16.378;2023-04-25T02:47:25;12.90;55.50
76168;DHT22;64927;48.214;16.378;2023-04-25T02:49:52;12.90;55.70
76168;DHT22;64927;48.214;16.378;2023-04-25T02:52:20;12.90;55.90
76168;DHT22;64927;48.214;16.378;2023-04-25T02:54:49;12.90;55.90
76168;DHT22;64927;48.214;16.378;2023-04-25T02:57:14;12.70;56.30
76168;DHT22;64927;48.214;16.378;2023-04-25T02:59:40;12.70;56.30
76168;DHT22;64927;48.214;16.378;2023-04-25T03:02:06;12.70;56.30
76168;DHT22;64927;48.214;16.378;2023-04-25T03:04:31;12.70;56.30
76168;DHT22;64927;48.214;16.378;2023-04-25T03:06:58;12.70;56.50
76168;DHT22;64927;48.214;16.378;2023-04-25T03:09:24;12.60;56.20
76168;DHT22;64927;48.214;16.378;2023-04-25T03:11:52;12.60;56.80
76168;DHT22;64927;48.214;16.378;2023-04-25T03:14:18;12.60;56.60
76168;DHT22;64927;48.214;16.378;2023-04-25T03:16:44;12.50;56.70
76168;DHT22;64927;48.214;16.378;2023-04-25T03:19:10;12.60;57.10
76168;DHT22;64927;48.214;16.378;2023-04-25T03:21:38;12.50;56.60
76168;DHT22;64927;48.214;16.378;2023-04-25T03:24:04;12.50;56.40
76168;DHT22;64927;48.214;16.378;2023-04-25T03:26:34;12.50;56.70
76168;DHT22;64927;48.214;16.378;2023-04-25T03:29:00;12.50;56.90
76168;DHT22;64927;48.214;16.378;2023-04-25T03:31:26;12.50;56.90
76168;DHT22;64927;48.214;16.378;2023-04-25T03:33:51;12.40;57.10
76168;DHT22;64927;48.214;16.378;2023-04-25T03:36:17;12.40;57.10
76168;DHT22;64927;48.214;16.378;2023-04-25T03:38:43;12.50;57.00
76168;DHT22;64927;48.214;16.378;2023-04-25T03:41:08;12.50;57.10
76168;DHT22;64927;48.214;16.378;2023-04-25T03:43:34;12.50;56.90
76168;DHT22;64927;48.214;16.378;2023-04-25T03:46:02;12.50;57.10
76168;DHT22;64927;48.214;16.378;2023-04-25T03:48:27;12.50;56.60
76168;DHT22;64927;48.214;16.378;2023-04-25T03:50:54;12.50;56.80
76168;DHT22;64927;48.214;16.378;2023-04-25T03:53:20;12.40;57.20
76168;DHT22;64927;48.214;16.378;2023-04-25T03:55:45;12.40;56.90
76168;DHT22;64927;48.214;16.378;2023-04-25T03:58:11;12.40;57.00
76168;DHT22;64927;48.214;16.378;2023-04-25T04:00:37;12.50;56.70
76168;DHT22;64927;48.214;16.378;2023-04-25T04:03:05;12.40;56.50
76168;DHT22;64927;48.214;16.378;2023-04-25T04:05:30;12.40;56.70
76168;DHT22;64927;48.214;16.378;2023-04-25T04:07:58;12.30;56.40
76168;DHT22;64927;48.214;16.378;2023-04-25T04:10:26;12.30;56.40
76168;DHT22;64927;48.214;16.378;2023-04-25T04:12:55;12.40;56.40
76168;DHT22;64927;48.214;16.378;2023-04-25T04:15:20;12.40;56.40
76168;DHT22;64927;48.214;16.378;2023-04-25T04:17:47;12.40;56.40
76168;DHT22;64927;48.214;16.378;2023-04-25T04:20:13;12.40;56.20
76168;DHT22;64927;48.214;16.378;2023-04-25T04:22:38;12.30;56.60
76168;DHT22;64927;48.214;16.378;2023-04-25T04:25:05;12.30;57.20
76168;DHT22;64927;48.214;16.378;2023-04-25T04:27:31;12.30;56.10
76168;DHT22;64927;48.214;16.378;2023-04-25T04:29:59;12.30;56.00
76168;DHT22;64927;48.214;16.378;2023-04-25T04:32:25;12.30;56.10
76168;DHT22;64927;48.214;16.378;2023-04-25T04:34:55;12.30;56.00
76168;DHT22;64927;48.214;16.378;2023-04-25T04:37:25;12.30;55.90
76168;DHT22;64927;48.214;16.378;2023-04-25T04:39:52;12.30;55.70
76168;DHT22;64927;48.214;16.378;2023-04-25T04:42:18;12.30;55.80
76168;DHT22;64927;48.214;16.378;2023-04-25T04:44:44;12.30;55.80
76168;DHT22;64927;48.214;16.378;2023-04-25T04:47:10;12.30;56.10
76168;DHT22;64927;48.214;16.378;2023-04-25T04:49:36;12.20;56.00
76168;DHT22;64927;48.214;16.378;2023-04-25T04:52:01;12.20;56.10
76168;DHT22;64927;48.214;16.378;2023-04-25T04:54:27;12.30;56.20
76168;DHT22;64927;48.214;16.378;2023-04-25T04:56:53;12.20;56.00
76168;DHT22;64927;48.214;16.378;2023-04-25T04:59:18;12.20;56.10
76168;DHT22;64927;48.214;16.378;2023-04-25T05:01:44;12.20;56.00
76168;DHT22;64927;48.214;16.378;2023-04-25T05:04:10;12.20;55.90
76168;DHT22;64927;48.214;16.378;2023-04-25T05:06:35;12.30;55.40
76168;DHT22;64927;48.214;16.378;2023-04-25T05:09:01;12.20;56.20
76168;DHT22;64927;48.214;16.378;2023-04-25T05:11:29;12.10;55.40
76168;DHT22;64927;48.214;16.378;2023-04-25T05:13:57;12.00;56.40
76168;DHT22;64927;48.214;16.378;2023-04-25T05:16:22;12.10;55.50
76168;DHT22;64927;48.214;16.378;2023-04-25T05:18:48;12.10;55.50
76168;DHT22;64927;48.214;16.378;2023-04-25T05:21:14;12.00;55.40
76168;DHT22;64927;48.214;16.378;2023-04-25T05:23:40;12.10;55.90
76168;DHT22;64927;48.214;16.378;2023-04-25T05:26:05;12.10;55.50
76168;DHT22;64927;48.214;16.378;2023-04-25T05:28:39;12.10;55.60
76168;DHT22;64927;48.214;16.378;2023-04-25T05:31:06;12.20;55.40
76168;DHT22;64927;48.214;16.378;2023-04-25T05:33:32;12.10;55.60
76168;DHT22;64927;48.214;16.378;2023-04-25T05:35:58;12.20;55.80
76168;DHT22;64927;48.214;16.378;2023-04-25T05:38:26;12.20;55.70
76168;DHT22;64927;48.214;16.378;2023-04-25T05:40:51;12.20;56.10
76168;DHT22;64927;48.214;16.378;2023-04-25T05:43:17;12.30;55.90
76168;DHT22;64927;48.214;16.378;2023-04-25T05:45:43;12.40;55.30
76168;DHT22;64927;48.214;16.378;2023-04-25T05:48:08;12.70;55.10
76168;DHT22;64927;48.214;16.378;2023-04-25T05:50:34;12.80;54.90
76168;DHT22;64927;48.214;16.378;2023-04-25T05:53:00;12.90;55.20
76168;DHT22;64927;48.214;16.378;2023-04-25T05:55:26;13.10;53.60
76168;DHT22;64927;48.214;16.378;2023-04-25T05:57:51;13.30;53.40
76168;DHT22;64927;48.214;16.378;2023-04-25T06:00:17;13.40;52.70
76168;DHT22;64927;48.214;16.378;2023-04-25T06:02:44;13.60;52.00
76168;DHT22;64927;48.214;16.378;2023-04-25T06:05:12;13.50;52.70
76168;DHT22;64927;48.214;16.378;2023-04-25T06:07:37;13.80;51.70
76168;DHT22;64927;48.214;16.378;2023-04-25T06:10:04;14.00;51.80
76168;DHT22;64927;48.214;16.378;2023-04-25T06:12:32;14.30;50.80
76168;DHT22;64927;48.214;16.378;2023-04-25T06:14:59;14.60;50.20
76168;DHT22;64927;48.214;16.378;2023-04-25T06:17:24;14.80;48.30
76168;DHT22;64927;48.214;16.378;2023-04-25T06:19:50;14.80;48.40
76168;DHT22;64927;48.214;16.378;2023-04-25T06:22:15;14.90;47.80
76168;DHT22;64927;48.214;16.378;2023-04-25T06:24:41;15.20;46.80
76168;DHT22;64927;48.214;16.378;2023-04-25T06:27:07;15.30;46.60
76168;DHT22;64927;48.214;16.378;2023-04-25T06:29:32;15.60;45.50
76168;DHT22;64927;48.214;16.378;2023-04-25T06:31:58;15.80;45.70
76168;DHT22;64927;48.214;16.378;2023-04-25T06:34:24;16.10;44.60
76168;DHT22;64927;48.214;16.378;2023-04-25T06:36:49;16.60;43.80
76168;DHT22;64927;48.214;16.378;2023-04-25T06:39:15;17.30;42.10
76168;DHT22;64927;48.214;16.378;2023-04-25T06:41:41;17.20;41.10
76168;DHT22;64927;48.214;16.378;2023-04-25T06:44:10;17.20;40.80
76168;DHT22;64927;48.214;16.378;2023-04-25T06:46:36;17.20;40.50
76168;DHT22;64927;48.214;16.378;2023-04-25T06:49:03;17.00;40.90
76168;DHT22;64927;48.214;16.378;2023-04-25T06:51:28;17.10;40.90
76168;DHT22;64927;48.214;16.378;2023-04-25T06:53:57;17.30;39.80
76168;DHT22;64927;48.214;16.378;2023-04-25T06:56:23;17.40;39.90
76168;DHT22;64927;48.214;16.378;2023-04-25T06:58:49;17.60;41.30
76168;DHT22;64927;48.214;16.378;2023-04-25T07:01:15;17.50;40.60
76168;DHT22;64927;48.214;16.378;2023-04-25T07:03:43;18.00;39.30
76168;DHT22;64927;48.214;16.378;2023-04-25T07:06:08;18.60;38.90
76168;DHT22;64927;48.214;16.378;2023-04-25T07:08:34;19.00;39.60
76168;DHT22;64927;48.214;16.378;2023-04-25T07:11:00;18.90;36.00
76168;DHT22;64927;48.214;16.378;2023-04-25T07:13:25;18.90;37.60
76168;DHT22;64927;48.214;16.378;2023-04-25T07:15:53;19.30;35.70
76168;DHT22;64927;48.214;16.378;2023-04-25T07:18:22;18.80;36.50
76168;DHT22;64927;48.214;16.378;2023-04-25T07:20:47;19.30;36.50
76168;DHT22;64927;48.214;16.378;2023-04-25T07:23:13;19.30;36.50
76168;DHT22;64927;48.214;16.378;2023-04-25T07:25:39;19.70;37.10
76168;DHT22;64927;48.214;16.378;2023-04-25T07:28:05;20.00;35.60
76168;DHT22;64927;48.214;16.378;2023-04-25T07:30:30;20.00;35.20
76168;DHT22;64927;48.214;16.378;2023-04-25T07:32:56;19.60;35.50
76168;DHT22;64927;48.214;16.378;2023-04-25T07:35:22;19.90;35.50
76168;DHT22;64927;48.214;16.378;2023-04-25T07:37:50;20.00;35.30
76168;DHT22;64927;48.214;16.378;2023-04-25T07:40:16;20.60;35.00
76168;DHT22;64927;48.214;16.378;2023-04-25T07:42:42;20.90;34.40
76168;DHT22;64927;48.214;16.378;2023-04-25T07:45:08;20.80;34.10
76168;DHT22;64927;48.214;16.378;2023-04-25T07:47:35;20.90;33.80
76168;DHT22;64927;48.214;16.378;2023-04-25T07:50:01;20.30;33.50
76168;DHT22;64927;48.214;16.378;2023-04-25T07:52:26;20.50;34.10
76168;DHT22;64927;48.214;16.378;2023-04-25T07:54:52;20.80;33.80
76168;DHT22;64927;48.214;16.378;2023-04-25T07:57:25;21.10;34.00
76168;DHT22;64927;48.214;16.378;2023-04-25T07:59:51;21.50;34.10
76168;DHT22;64927;48.214;16.378;2023-04-25T08:02:16;21.60;32.90
76168;DHT22;64927;48.214;16.378;2023-04-25T08:04:42;21.30;32.70
76168;DHT22;64927;48.214;16.378;2023-04-25T08:07:08;20.70;33.50
76168;DHT22;64927;48.214;16.378;2023-04-25T08:09:33;20.40;34.10
76168;DHT22;64927;48.214;16.378;2023-04-25T08:12:02;20.70;33.50
76168;DHT22;64927;48.214;16.378;2023-04-25T08:14:29;20.50;33.70
76168;DHT22;64927;48.214;16.378;2023-04-25T08:17:03;20.90;33.10
76168;DHT22;64927;48.214;16.378;2023-04-25T08:19:31;21.20;33.80
76168;DHT22;64927;48.214;16.378;2023-04-25T08:21:57;20.90;33.30
76168;DHT22;64927;48.214;16.378;2023-04-25T08:24:23;20.50;33.90
76168;DHT22;64927;48.214;16.378;2023-04-25T08:26:49;20.50;34.10
76168;DHT22;64927;48.214;16.378;2023-04-25T08:29:15;20.20;34.20
76168;DHT22;64927;48.214;16.378;2023-04-25T08:31:40;19.90;34.10
76168;DHT22;64927;48.214;16.378;2023-04-25T08:34:06;20.00;34.30
76168;DHT22;64927;48.214;16.378;2023-04-25T08:36:32;20.20;33.90
76168;DHT22;64927;48.214;16.378;2023-04-25T08:38:58;20.40;35.80
76168;DHT22;64927;48.214;16.378;2023-04-25T08:41:24;21.30;33.50
76168;DHT22;64927;48.214;16.378;2023-04-25T08:43:53;20.90;32.30
76168;DHT22;64927;48.214;16.378;2023-04-25T08:46:21;20.00;33.90
76168;DHT22;64927;48.214;16.378;2023-04-25T08:48:53;19.70;35.40
76168;DHT22;64927;48.214;16.378;2023-04-25T08:51:25;20.10;35.40
76168;DHT22;64927;48.214;16.378;2023-04-25T08:53:53;20.20;34.20
76168;DHT22;64927;48.214;16.378;2023-04-25T08:56:19;20.40;33.70
76168;DHT22;64927;48.214;16.378;2023-04-25T08:58:50;20.50;33.40
76168;DHT22;64927;48.214;16.378;2023-04-25T09:01:17;20.90;33.40
76168;DHT22;64927;48.214;16.378;2023-04-25T09:03:46;20.80;32.60
76168;DHT22;64927;48.214;16.378;2023-04-25T09:06:16;20.90;32.90
76168;DHT22;64927;48.214;16.378;2023-04-25T09:08:43;20.40;32.80
76168;DHT22;64927;48.214;16.378;2023-04-25T09:11:09;20.40;33.10
76168;DHT22;64927;48.214;16.378;2023-04-25T09:13:34;20.20;33.70
76168;DHT22;64927;48.214;16.378;2023-04-25T09:16:00;19.60;34.90
76168;DHT22;64927;48.214;16.378;2023-04-25T09:18:31;19.20;35.50
76168;DHT22;64927;48.214;16.378;2023-04-25T09:21:09;19.00;35.80
76168;DHT22;64927;48.214;16.378;2023-04-25T09:23:46;18.90;36.50
76168;DHT22;64927;48.214;16.378;2023-04-25T09:26:16;18.80;37.10
76168;DHT22;64927;48.214;16.378;2023-04-25T09:28:43;18.90;37.00
76168;DHT22;64927;48.214;16.378;2023-04-25T09:31:12;18.80;37.30
76168;DHT22;64927;48.214;16.378;2023-04-25T09:33:40;18.50;38.30
76168;DHT22;64927;48.214;16.378;2023-04-25T09:36:10;18.10;38.40
76168;DHT22;64927;48.214;16.378;2023-04-25T09:38:45;17.70;40.00
76168;DHT22;64927;48.214;16.378;2023-04-25T09:41:12;17.50;41.50
76168;DHT22;64927;48.214;16.378;2023-04-25T09:43:41;17.20;43.70
76168;DHT22;64927;48.214;16.378;2023-04-25T09:46:13;17.10;44.60
76168;DHT22;64927;48.214;16.378;2023-04-25T09:48:39;17.10;44.60
76168;DHT22;64927;48.214;16.378;2023-04-25T09:53:32;17.50;43.60
76168;DHT22;64927;48.214;16.378;2023-04-25T09:56:03;17.70;42.90
76168;DHT22;64927;48.214;16.378;2023-04-25T09:58:29;17.70;41.40
76168;DHT22;64927;48.214;16.378;2023-04-25T10:01:07;17.70;41.50
76168;DHT22;64927;48.214;16.378;2023-04-25T10:03:34;17.90;38.90
76168;DHT22;64927;48.214;16.378;2023-04-25T10:06:04;17.90;38.90
76168;DHT22;64927;48.214;16.378;2023-04-25T10:08:36;17.90;38.10
76168;DHT22;64927;48.214;16.378;2023-04-25T10:11:08;17.70;39.10
76168;DHT22;64927;48.214;16.378;2023-04-25T10:13:40;18.00;37.60
76168;DHT22;64927;48.214;16.378;2023-04-25T10:16:07;17.90;36.70
76168;DHT22;64927;48.214;16.378;2023-04-25T10:18:33;18.10;36.90
76168;DHT22;64927;48.214;16.378;2023-04-25T10:21:05;18.10;36.60
76168;DHT22;64927;48.214;16.378;2023-04-25T10:23:32;18.00;37.30
76168;DHT22;64927;48.214;16.378;2023-04-25T10:26:00;18.20;37.60
76168;DHT22;64927;48.214;16.378;2023-04-25T10:28:28;18.00;37.10
76168;DHT22;64927;48.214;16.378;2023-04-25T10:31:00;18.20;37.70
76168;DHT22;64927;48.214;16.378;2023-04-25T10:33:37;18.60;36.70
76168;DHT22;64927;48.214;16.378;2023-04-25T10:36:14;18.70;36.60
76168;DHT22;64927;48.214;16.378;2023-04-25T10:38:42;18.40;37.80
76168;DHT22;64927;48.214;16.378;2023-04-25T10:41:12;18.30;37.40
76168;DHT22;64927;48.214;16.378;2023-04-25T10:43:39;18.40;37.20
76168;DHT22;64927;48.214;16.378;2023-04-25T10:48:46;18.20;36.80
76168;DHT22;64927;48.214;16.378;2023-04-25T10:56:21;18.20;37.00
76168;DHT22;64927;48.214;16.378;2023-04-25T10:58:47;18.30;36.90
76168;DHT22;64927;48.214;16.378;2023-04-25T11:01:21;18.40;36.30
76168;DHT22;64927;48.214;16.378;2023-04-25T11:03:57;18.60;36.30
76168;DHT22;64927;48.214;16.378;2023-04-25T11:06:32;18.80;35.40
76168;DHT22;64927;48.214;16.378;2023-04-25T11:09:02;18.70;35.50
76168;DHT22;64927;48.214;16.378;2023-04-25T11:11:36;19.00;35.60
76168;DHT22;64927;48.214;16.378;2023-04-25T11:14:02;19.40;34.80
76168;DHT22;64927;48.214;16.378;2023-04-25T11:16:27;19.60;35.40
76168;DHT22;64927;48.214;16.378;2023-04-25T11:18:56;19.70;34.00
76168;DHT22;64927;48.214;16.378;2023-04-25T11:21:31;19.50;35.00
76168;DHT22;64927;48.214;16.378;2023-04-25T11:23:57;20.00;34.40
76168;DHT22;64927;48.214;16.378;2023-04-25T11:26:24;19.90;33.60
76168;DHT22;64927;48.214;16.378;2023-04-25T11:28:58;19.00;35.00
76168;DHT22;64927;48.214;16.378;2023-04-25T11:31:25;18.50;35.60
76168;DHT22;64927;48.214;16.378;2023-04-25T11:33:53;18.10;36.30
76168;DHT22;64927;48.214;16.378;2023-04-25T11:36:19;17.70;37.60
76168;DHT22;64927;48.214;16.378;2023-04-25T11:38:52;17.40;38.90
76168;DHT22;64927;48.214;16.378;2023-04-25T11:41:20;16.90;41.80
76168;DHT22;64927;48.214;16.378;2023-04-25T11:43:48;16.30;45.70
76168;DHT22;64927;48.214;16.378;2023-04-25T11:46:15;15.90;47.20
76168;DHT22;64927;48.214;16.378;2023-04-25T11:48:45;15.40;49.00
76168;DHT22;64927;48.214;16.378;2023-04-25T11:51:14;15.00;51.30
76168;DHT22;64927;48.214;16.378;2023-04-25T11:53:44;14.80;52.20
76168;DHT22;64927;48.214;16.378;2023-04-25T11:56:10;14.80;52.90
76168;DHT22;64927;48.214;16.378;2023-04-25T12:01:38;15.20;52.40
76168;DHT22;64927;48.214;16.378;2023-04-25T12:04:16;15.50;50.30
76168;DHT22;64927;48.214;16.378;2023-04-25T12:06:53;15.60;50.80
76168;DHT22;64927;48.214;16.378;2023-04-25T12:09:32;15.60;49.40
76168;DHT22;64927;48.214;16.378;2023-04-25T12:12:09;15.70;47.90
76168;DHT22;64927;48.214;16.378;2023-04-25T12:14:35;15.90;49.30
76168;DHT22;64927;48.214;16.378;2023-04-25T12:17:03;16.20;47.80
76168;DHT22;64927;48.214;16.378;2023-04-25T12:19:34;16.40;47.40
76168;DHT22;64927;48.214;16.378;2023-04-25T12:22:01;16.50;46.20
76168;DHT22;64927;48.214;16.378;2023-04-25T12:24:28;16.50;45.60
76168;DHT22;64927;48.214;16.378;2023-04-25T12:29:25;16.40;46.30
76168;DHT22;64927;48.214;16.378;2023-04-25T12:31:52;16.60;45.50
76168;DHT22;64927;48.214;16.378;2023-04-25T12:34:19;16.60;44.80
76168;DHT22;64927;48.214;16.378;2023-04-25T12:36:45;16.60;45.00
76168;DHT22;64927;48.214;16.378;2023-04-25T12:39:23;16.70;44.80
76168;DHT22;64927;48.214;16.378;2023-04-25T12:41:50;16.80;43.90
76168;DHT22;64927;48.214;16.378;2023-04-25T12:44:19;16.80;43.40
76168;DHT22;64927;48.214;16.378;2023-04-25T12:46:45;16.90;42.40
76168;DHT22;64927;48.214;16.378;2023-04-25T12:49:10;17.00;41.30
76168;DHT22;64927;48.214;16.378;2023-04-25T12:51:37;17.00;41.00
76168;DHT22;64927;48.214;16.378;2023-04-25T12:54:04;17.00;40.70
76168;DHT22;64927;48.214;16.378;2023-04-25T12:56:31;16.90;40.80
76168;DHT22;64927;48.214;16.378;2023-04-25T12:58:57;16.90;40.60
76168;DHT22;64927;48.214;16.378;2023-04-25T13:01:26;16.50;42.40
76168;DHT22;64927;48.214;16.378;2023-04-25T13:03:52;16.60;42.40
76168;DHT22;64927;48.214;16.378;2023-04-25T13:06:19;16.60;42.70
76168;DHT22;64927;48.214;16.378;2023-04-25T13:08:47;16.70;42.60
76168;DHT22;64927;48.214;16.378;2023-04-25T13:11:13;16.60;41.70
76168;DHT22;64927;48.214;16.378;2023-04-25T13:13:43;16.80;41.80
76168;DHT22;64927;48.214;16.378;2023-04-25T13:16:10;17.00;40.50
76168;DHT22;64927;48.214;16.378;2023-04-25T13:18:38;17.10;40.30
76168;DHT22;64927;48.214;16.378;2023-04-25T13:21:03;17.10;39.30
76168;DHT22;64927;48.214;16.378;2023-04-25T13:23:30;17.10;38.70
76168;DHT22;64927;48.214;16.378;2023-04-25T13:25:56;17.30;37.80
76168;DHT22;64927;48.214;16.378;2023-04-25T13:28:27;17.30;38.00
76168;DHT22;64927;48.214;16.378;2023-04-25T13:30:53;17.20;37.40
76168;DHT22;64927;48.214;16.378;2023-04-25T13:33:20;17.20;37.80
76168;DHT22;64927;48.214;16.378;2023-04-25T13:35:47;17.40;37.40
76168;DHT22;64927;48.214;16.378;2023-04-25T13:38:22;17.50;36.70
76168;DHT22;64927;48.214;16.378;2023-04-25T13:40:48;17.70;37.10
76168;DHT22;64927;48.214;16.378;2023-04-25T13:43:14;17.70;35.90
76168;DHT22;64927;48.214;16.378;2023-04-25T13:45:40;17.70;35.40
76168;DHT22;64927;48.214;16.378;2023-04-25T13:48:08;17.80;36.00
76168;DHT22;64927;48.214;16.378;2023-04-25T13:50:33;17.80;36.00
76168;DHT22;64927;48.214;16.378;2023-04-25T13:52:59;17.70;36.70
76168;DHT22;64927;48.214;16.378;2023-04-25T13:55:26;17.70;35.70
76168;DHT22;64927;48.214;16.378;2023-04-25T13:57:54;17.50;35.70
76168;DHT22;64927;48.214;16.378;2023-04-25T14:00:20;17.50;36.90
76168;DHT22;64927;48.214;16.378;2023-04-25T14:02:46;17.50;37.90
76168;DHT22;64927;48.214;16.378;2023-04-25T14:05:12;17.70;38.70
76168;DHT22;64927;48.214;16.378;2023-04-25T14:07:38;17.50;38.90
76168;DHT22;64927;48.214;16.378;2023-04-25T14:10:07;17.50;38.80
76168;DHT22;64927;48.214;16.378;2023-04-25T14:12:35;17.20;39.50
76168;DHT22;64927;48.214;16.378;2023-04-25T14:15:00;17.20;39.70
76168;DHT22;64927;48.214;16.378;2023-04-25T14:17:29;17.60;39.60
76168;DHT22;64927;48.214;16.378;2023-04-25T14:19:55;17.90;38.90
76168;DHT22;64927;48.214;16.378;2023-04-25T14:22:23;18.20;37.40
76168;DHT22;64927;48.214;16.378;2023-04-25T14:24:51;18.30;37.70
76168;DHT22;64927;48.214;16.378;2023-04-25T14:27:17;18.10;37.40
76168;DHT22;64927;48.214;16.378;2023-04-25T14:29:43;17.80;38.10
76168;DHT22;64927;48.214;16.378;2023-04-25T14:32:08;17.50;38.90
76168;DHT22;64927;48.214;16.378;2023-04-25T14:34:36;17.30;39.80
76168;DHT22;64927;48.214;16.378;2023-04-25T14:37:02;17.20;40.10
76168;DHT22;64927;48.214;16.378;2023-04-25T14:39:28;17.00;40.50
76168;DHT22;64927;48.214;16.378;2023-04-25T14:41:53;16.90;40.90
76168;DHT22;64927;48.214;16.378;2023-04-25T14:44:19;16.80;41.00
76168;DHT22;64927;48.214;16.378;2023-04-25T14:46:45;16.60;41.60
76168;DHT22;64927;48.214;16.378;2023-04-25T14:49:11;16.70;42.20
76168;DHT22;64927;48.214;16.378;2023-04-25T14:51:36;16.70;41.60
76168;DHT22;64927;48.214;16.378;2023-04-25T14:54:02;16.60;41.50
76168;DHT22;64927;48.214;16.378;2023-04-25T14:56:30;16.70;41.60
76168;DHT22;64927;48.214;16.378;2023-04-25T14:58:56;16.80;42.00
76168;DHT22;64927;48.214;16.378;2023-04-25T15:01:22;16.90;41.70
76168;DHT22;64927;48.214;16.378;2023-04-25T15:03:48;17.00;41.10
76168;DHT22;64927;48.214;16.378;2023-04-25T15:06:13;16.80;41.00
76168;DHT22;64927;48.214;16.378;2023-04-25T15:08:39;16.80;41.60
76168;DHT22;64927;48.214;16.378;2023-04-25T15:11:05;16.70;41.80
76168;DHT22;64927;48.214;16.378;2023-04-25T15:13:33;16.80;42.00
76168;DHT22;64927;48.214;16.378;2023-04-25T15:16:00;16.70;43.20
76168;DHT22;64927;48.214;16.378;2023-04-25T15:18:26;16.60;43.90
76168;DHT22;64927;48.214;16.378;2023-04-25T15:20:52;16.50;45.20
76168;DHT22;64927;48.214;16.378;2023-04-25T15:23:19;16.50;45.60
76168;DHT22;64927;48.214;16.378;2023-04-25T15:25:49;16.40;46.00
76168;DHT22;64927;48.214;16.378;2023-04-25T15:28:15;16.20;45.60
76168;DHT22;64927;48.214;16.378;2023-04-25T15:30:43;16.10;45.20